createdAt,value
2022-09-14T00:01:28.974Z,17.30
2022-09-14T00:03:59.067Z,17.30
2022-09-14T00:06:28.469Z,17.30
2022-09-14T00:08:58.067Z,17.30
2022-09-14T00:11:29.562Z,17.30
2022-09-14T00:13:58.610Z,17.30
2022-09-14T00:16:30.024Z,17.30
2022-09-14T00:19:00.490Z,17.30
2022-09-14T00:21:28.927Z,17.30
2022-09-14T00:23:56.899Z,17.40
2022-09-14T00:26:25.656Z,17.40
2022-09-14T00:28:56.831Z,17.30
2022-09-14T00:31:26.126Z,17.30
2022-09-14T00:33:54.931Z,17.30
2022-09-14T00:36:24.476Z,17.30
2022-09-14T00:38:53.061Z,17.30
2022-09-14T00:41:23.082Z,17.30
2022-09-14T00:43:58.869Z,17.40
2022-09-14T00:46:28.638Z,17.40
2022-09-14T00:49:02.442Z,17.40
2022-09-14T00:51:32.982Z,17.30
2022-09-14T00:54:02.409Z,17.20
2022-09-14T00:56:30.835Z,17.10
2022-09-14T00:59:03.231Z,17.10
2022-09-14T01:01:31.077Z,17.10
2022-09-14T01:03:59.003Z,17.10
2022-09-14T01:06:35.904Z,17.00
2022-09-14T01:09:15.909Z,17.00
2022-09-14T01:11:54.941Z,17.00
2022-09-14T01:14:29.673Z,17.00
2022-09-14T01:17:05.627Z,17.00
2022-09-14T01:19:47.162Z,17.00
2022-09-14T01:22:22.118Z,17.10
2022-09-14T01:24:54.473Z,17.10
2022-09-14T01:27:32.551Z,17.10
2022-09-14T01:30:10.221Z,17.00
2022-09-14T01:32:43.596Z,17.00
2022-09-14T01:35:17.042Z,16.90
2022-09-14T01:37:48.997Z,17.00
2022-09-14T01:40:21.866Z,17.00
2022-09-14T01:42:56.002Z,16.90
2022-09-14T01:45:27.091Z,17.00
2022-09-14T01:47:58.980Z,17.00
2022-09-14T01:50:31.231Z,16.90
2022-09-14T01:53:05.444Z,16.90
2022-09-14T01:55:36.879Z,16.90
2022-09-14T01:58:09.798Z,16.90
2022-09-14T02:00:40.620Z,16.80
2022-09-14T02:03:13.519Z,16.90
2022-09-14T02:05:48.844Z,16.80
2022-09-14T02:08:16.902Z,16.80
2022-09-14T02:10:44.947Z,16.80
2022-09-14T02:13:14.276Z,16.80
2022-09-14T02:15:42.167Z,16.80
2022-09-14T02:18:10.016Z,16.80
2022-09-14T02:20:42.842Z,16.80
2022-09-14T02:23:11.032Z,16.80
2022-09-14T02:25:41.004Z,16.80
2022-09-14T02:28:09.071Z,16.80
2022-09-14T02:30:48.798Z,16.80
2022-09-14T02:33:21.979Z,16.80
2022-09-14T02:35:54.749Z,16.80
2022-09-14T02:38:30.107Z,16.80
2022-09-14T02:41:04.194Z,16.70
2022-09-14T02:43:43.518Z,16.70
2022-09-14T02:46:18.549Z,16.70
2022-09-14T02:48:56.345Z,16.70
2022-09-14T02:51:29.843Z,16.70
2022-09-14T02:54:02.043Z,16.70
2022-09-14T02:56:30.562Z,16.70
2022-09-14T02:58:58.542Z,16.70
2022-09-14T03:01:27.951Z,16.70
2022-09-14T03:03:55.880Z,16.70
2022-09-14T03:06:24.083Z,16.70
2022-09-14T03:08:52.067Z,16.70
2022-09-14T03:11:20.420Z,16.70
2022-09-14T03:13:48.464Z,16.80
2022-09-14T03:16:17.405Z,16.80
2022-09-14T03:18:46.643Z,16.80
2022-09-14T03:21:16.561Z,16.80
2022-09-14T03:23:46.225Z,16.80
2022-09-14T03:26:15.570Z,16.70
2022-09-14T03:28:43.907Z,16.70
2022-09-14T03:31:13.615Z,16.70
2022-09-14T03:33:41.842Z,16.70
2022-09-14T03:36:16.537Z,16.70
2022-09-14T03:38:45.475Z,16.70
2022-09-14T03:41:15.048Z,16.70
2022-09-14T03:43:44.310Z,16.70
2022-09-14T03:46:14.025Z,16.70
2022-09-14T03:48:42.180Z,16.70
2022-09-14T03:51:12.207Z,16.70
2022-09-14T03:53:42.435Z,16.70
2022-09-14T03:56:11.560Z,16.70
2022-09-14T03:58:40.075Z,16.70
2022-09-14T04:01:09.579Z,16.70
2022-09-14T04:03:38.072Z,16.70
2022-09-14T04:06:06.543Z,16.70
2022-09-14T04:08:35.972Z,16.70
2022-09-14T04:11:09.540Z,16.70
2022-09-14T04:13:37.928Z,16.70
2022-09-14T04:16:06.086Z,16.70
2022-09-14T04:18:34.675Z,16.70
2022-09-14T04:23:31.138Z,16.70
2022-09-14T04:25:59.098Z,16.70
2022-09-14T04:28:31.425Z,16.70
2022-09-14T04:31:00.640Z,16.70
2022-09-14T04:33:31.814Z,16.70
2022-09-14T04:36:01.738Z,16.70
2022-09-14T04:38:30.690Z,16.70
2022-09-14T04:40:59.123Z,16.70
2022-09-14T04:43:28.526Z,16.70
2022-09-14T04:46:03.271Z,16.70
2022-09-14T04:48:34.892Z,16.70
2022-09-14T04:51:04.193Z,16.70
2022-09-14T04:53:34.234Z,16.70
2022-09-14T04:56:02.704Z,16.80
2022-09-14T04:58:31.921Z,16.70
2022-09-14T05:01:02.895Z,16.80
2022-09-14T05:03:30.975Z,16.80
2022-09-14T05:06:02.889Z,16.80
2022-09-14T05:08:31.226Z,16.80
2022-09-14T05:10:59.645Z,16.90
2022-09-14T05:13:27.807Z,16.90
2022-09-14T05:16:05.134Z,16.90
2022-09-14T05:18:33.217Z,16.90
2022-09-14T05:23:31.049Z,16.90
2022-09-14T05:25:59.578Z,17.00
2022-09-14T05:28:28.012Z,16.90
2022-09-14T05:30:57.422Z,17.00
2022-09-14T05:33:25.881Z,17.00
2022-09-14T05:35:54.013Z,17.00
2022-09-14T05:38:21.855Z,17.00
2022-09-14T05:40:49.835Z,16.90
2022-09-14T05:43:17.711Z,17.00
2022-09-14T05:45:45.755Z,17.00
2022-09-14T05:48:14.942Z,17.00
2022-09-14T05:50:42.828Z,17.00
2022-09-14T05:53:10.708Z,17.00
2022-09-14T05:55:38.896Z,17.00
2022-09-14T05:58:06.718Z,17.00
2022-09-14T06:00:34.935Z,17.00
2022-09-14T06:03:02.796Z,17.00
2022-09-14T06:05:32.135Z,17.00
2022-09-14T06:07:59.996Z,17.00
2022-09-14T06:10:27.979Z,17.10
2022-09-14T06:12:55.935Z,17.10
2022-09-14T06:15:24.583Z,17.20
2022-09-14T06:17:52.521Z,17.20
2022-09-14T06:20:20.377Z,17.20
2022-09-14T06:22:49.641Z,17.10
2022-09-14T06:25:17.668Z,17.10
2022-09-14T06:27:45.527Z,17.10
2022-09-14T06:30:14.177Z,17.10
2022-09-14T06:32:42.026Z,17.10
2022-09-14T06:35:12.583Z,17.10
2022-09-14T06:37:40.538Z,17.10
2022-09-14T06:40:10.899Z,17.10
2022-09-14T06:42:38.806Z,17.10
2022-09-14T06:45:08.107Z,17.10
2022-09-14T06:47:35.986Z,17.20
2022-09-14T06:50:04.124Z,17.20
2022-09-14T06:52:33.867Z,17.20
2022-09-14T06:55:02.032Z,17.10
2022-09-14T06:57:31.279Z,17.20
2022-09-14T06:59:59.194Z,17.20
2022-09-14T07:02:27.253Z,17.20
2022-09-14T07:04:55.528Z,17.30
2022-09-14T07:07:23.524Z,17.30
2022-09-14T07:09:51.429Z,17.30
2022-09-14T07:12:19.374Z,17.30
2022-09-14T07:14:48.665Z,17.30
2022-09-14T07:17:18.086Z,17.30
2022-09-14T07:19:46.197Z,17.30
2022-09-14T07:22:14.084Z,17.30
2022-09-14T07:24:42.089Z,17.40
2022-09-14T07:27:10.011Z,17.60
2022-09-14T07:29:37.938Z,17.70
2022-09-14T07:32:07.522Z,17.70
2022-09-14T07:34:35.375Z,17.80
2022-09-14T07:37:03.293Z,17.80
2022-09-14T07:39:31.152Z,17.90
2022-09-14T07:41:59.095Z,18.00
2022-09-14T07:44:26.985Z,17.90
2022-09-14T07:46:54.956Z,18.00
2022-09-14T07:49:24.650Z,18.00
2022-09-14T07:51:54.044Z,17.80
2022-09-14T07:54:22.159Z,18.00
2022-09-14T07:56:50.560Z,17.90
2022-09-14T07:59:38.619Z,17.90
2022-09-14T08:02:08.536Z,17.90
2022-09-14T08:04:39.322Z,17.90
2022-09-14T08:07:07.827Z,17.90
2022-09-14T08:09:36.398Z,17.80
2022-09-14T08:12:05.635Z,17.60
2022-09-14T08:14:34.221Z,17.70
2022-09-14T08:17:02.352Z,17.70
2022-09-14T08:19:31.183Z,17.60
2022-09-14T08:22:00.853Z,17.60
2022-09-14T08:24:29.402Z,17.70
2022-09-14T08:26:57.891Z,17.70
2022-09-14T08:29:26.698Z,17.70
2022-09-14T08:31:54.984Z,17.80
2022-09-14T08:34:24.651Z,17.70
2022-09-14T08:36:52.849Z,17.80
2022-09-14T08:39:22.281Z,17.90
2022-09-14T08:41:55.192Z,18.00
2022-09-14T08:44:27.886Z,18.00
2022-09-14T08:47:04.030Z,18.00
2022-09-14T08:49:46.755Z,18.00
2022-09-14T08:52:22.954Z,18.10
2022-09-14T08:54:55.021Z,18.20
2022-09-14T08:57:34.134Z,18.10
2022-09-14T09:00:09.959Z,18.10
2022-09-14T09:02:54.665Z,18.00
2022-09-14T09:05:31.103Z,18.00
2022-09-14T09:08:07.897Z,18.00
2022-09-14T09:10:40.088Z,18.10
2022-09-14T09:13:13.690Z,18.10
2022-09-14T09:15:46.164Z,18.20
2022-09-14T09:18:18.060Z,18.20
2022-09-14T09:20:50.189Z,18.20
2022-09-14T09:23:19.844Z,18.30
2022-09-14T09:25:55.138Z,18.30
2022-09-14T09:28:24.429Z,18.20
2022-09-14T09:30:53.869Z,18.20
2022-09-14T09:33:24.295Z,18.30
2022-09-14T09:35:52.485Z,18.30
2022-09-14T09:38:24.884Z,18.40
2022-09-14T09:40:59.518Z,18.50
2022-09-14T09:43:45.739Z,18.60
2022-09-14T09:46:15.984Z,18.60
2022-09-14T09:48:46.537Z,18.50
2022-09-14T09:51:16.907Z,18.50
2022-09-14T09:53:52.290Z,18.50
2022-09-14T09:56:25.344Z,18.50
2022-09-14T09:58:53.459Z,18.40
2022-09-14T10:01:27.390Z,18.40
2022-09-14T10:04:04.533Z,18.40
2022-09-14T10:06:33.616Z,18.40
2022-09-14T10:09:01.515Z,18.50
2022-09-14T10:11:34.480Z,18.60
2022-09-14T10:14:04.999Z,18.80
2022-09-14T10:16:39.079Z,18.90
2022-09-14T10:19:15.359Z,18.80
2022-09-14T10:22:21.840Z,18.80
2022-09-14T10:24:58.268Z,18.80
2022-09-14T10:27:40.628Z,18.80
2022-09-14T10:30:17.165Z,18.90
2022-09-14T10:32:50.900Z,18.90
2022-09-14T10:35:20.168Z,19.00
2022-09-14T10:38:00.129Z,19.00
2022-09-14T10:40:36.571Z,18.90
2022-09-14T10:43:18.265Z,19.10
2022-09-14T10:45:52.395Z,19.10
2022-09-14T10:49:05.414Z,19.20
2022-09-14T10:51:43.148Z,19.10
2022-09-14T10:54:30.127Z,19.20
2022-09-14T10:57:09.545Z,19.60
2022-09-14T10:59:48.658Z,19.60
2022-09-14T11:02:39.449Z,19.30
2022-09-14T11:05:23.323Z,19.40
2022-09-14T11:08:01.971Z,19.50
2022-09-14T11:10:34.825Z,19.40
2022-09-14T11:13:27.905Z,19.30
2022-09-14T11:16:03.905Z,19.30
2022-09-14T11:18:45.133Z,19.20
2022-09-14T11:21:22.173Z,19.30
2022-09-14T11:23:54.351Z,19.30
2022-09-14T11:26:31.340Z,19.30
2022-09-14T11:29:04.052Z,19.40
2022-09-14T11:31:37.645Z,19.40
2022-09-14T11:34:16.337Z,19.60
2022-09-14T11:36:48.280Z,19.80
2022-09-14T11:39:22.031Z,19.90
2022-09-14T11:41:54.240Z,19.80
2022-09-14T11:44:25.546Z,19.80
2022-09-14T11:47:00.897Z,19.90
2022-09-14T11:49:39.600Z,19.90
2022-09-14T11:52:15.657Z,19.70
2022-09-14T11:54:46.876Z,19.80
2022-09-14T11:57:18.830Z,19.90
2022-09-14T11:59:52.840Z,20.10
2022-09-14T12:03:13.553Z,20.20
2022-09-14T12:05:43.464Z,20.40
2022-09-14T12:08:42.124Z,20.20
2022-09-14T12:11:33.201Z,20.50
2022-09-14T12:14:34.348Z,20.50
2022-09-14T12:17:38.183Z,20.40
2022-09-14T12:20:34.857Z,20.50
2022-09-14T12:23:07.809Z,20.30
2022-09-14T12:25:38.526Z,20.10
2022-09-14T12:28:31.727Z,20.10
2022-09-14T12:31:13.130Z,20.00
2022-09-14T12:34:05.838Z,19.80
2022-09-14T12:37:13.408Z,19.80
2022-09-14T12:40:36.159Z,19.80
2022-09-14T12:43:49.547Z,19.80
2022-09-14T12:46:39.646Z,19.70
2022-09-14T12:49:31.647Z,19.80
2022-09-14T12:52:12.149Z,19.80
2022-09-14T12:54:59.777Z,19.80
2022-09-14T12:57:35.960Z,19.80
2022-09-14T13:00:14.464Z,19.70
2022-09-14T13:03:10.733Z,19.60
2022-09-14T13:05:38.834Z,19.50
2022-09-14T13:08:11.551Z,19.60
2022-09-14T13:10:47.100Z,19.60
2022-09-14T13:13:19.328Z,19.50
2022-09-14T13:15:54.867Z,19.60
2022-09-14T13:18:33.501Z,19.70
2022-09-14T13:21:03.254Z,19.50
2022-09-14T13:23:37.023Z,19.40
2022-09-14T13:26:11.708Z,19.60
2022-09-14T13:28:42.997Z,19.70
2022-09-14T13:31:15.940Z,19.90
2022-09-14T13:33:51.586Z,19.80
2022-09-14T13:36:22.668Z,19.70
2022-09-14T13:38:51.242Z,19.70
2022-09-14T13:41:23.230Z,19.70
2022-09-14T13:43:54.216Z,19.70
2022-09-14T13:46:23.378Z,19.80
2022-09-14T13:48:54.019Z,19.90
2022-09-14T13:51:25.958Z,19.90
2022-09-14T13:53:55.954Z,20.00
2022-09-14T13:56:28.121Z,19.90
2022-09-14T13:59:20.594Z,20.00
2022-09-14T14:01:58.197Z,19.80
2022-09-14T14:04:35.486Z,19.60
2022-09-14T14:07:20.479Z,19.60
2022-09-14T14:09:51.625Z,19.60
2022-09-14T14:12:26.501Z,19.60
2022-09-14T14:14:56.207Z,19.50
2022-09-14T14:17:38.762Z,19.50
2022-09-14T14:20:37.187Z,19.50
2022-09-14T14:23:21.210Z,19.50
2022-09-14T14:25:54.256Z,19.40
2022-09-14T14:28:25.917Z,19.40
2022-09-14T14:30:54.634Z,19.40
2022-09-14T14:33:22.704Z,19.30
2022-09-14T14:35:54.403Z,19.20
2022-09-14T14:38:23.687Z,19.30
2022-09-14T14:40:55.196Z,19.30
2022-09-14T14:43:26.347Z,19.30
2022-09-14T14:45:56.828Z,19.40
2022-09-14T14:48:24.905Z,19.40
2022-09-14T14:50:55.658Z,19.40
2022-09-14T14:53:23.894Z,19.30
2022-09-14T14:55:51.788Z,19.30
2022-09-14T14:58:21.536Z,19.20
2022-09-14T15:00:49.736Z,19.10
2022-09-14T15:03:18.881Z,19.20
2022-09-14T15:05:48.283Z,19.10
2022-09-14T15:08:19.920Z,19.10
2022-09-14T15:10:48.120Z,19.00
2022-09-14T15:13:16.587Z,19.10
2022-09-14T15:15:44.965Z,19.30
2022-09-14T15:18:12.853Z,19.40
2022-09-14T15:20:41.175Z,19.40
2022-09-14T15:23:10.017Z,19.50
2022-09-14T15:25:39.817Z,19.30
2022-09-14T15:28:07.705Z,19.40
2022-09-14T15:30:35.539Z,19.40
2022-09-14T15:33:03.452Z,19.20
2022-09-14T15:35:31.345Z,19.20
2022-09-14T15:37:59.245Z,19.30
2022-09-14T15:40:27.416Z,19.40
2022-09-14T15:42:56.717Z,19.50
2022-09-14T15:45:24.623Z,19.40
2022-09-14T15:47:52.717Z,19.40
2022-09-14T15:50:20.646Z,19.40
2022-09-14T15:52:48.527Z,19.50
2022-09-14T15:55:16.436Z,19.60
2022-09-14T15:57:44.297Z,19.60
2022-09-14T16:00:15.514Z,19.70
2022-09-14T16:02:43.434Z,19.60
2022-09-14T16:05:12.944Z,19.70
2022-09-14T16:07:40.938Z,19.70
2022-09-14T16:10:09.956Z,19.70
2022-09-14T16:12:37.925Z,19.70
2022-09-14T16:15:06.619Z,19.70
2022-09-14T16:17:35.887Z,19.60
2022-09-14T16:20:04.812Z,19.60
2022-09-14T16:22:33.348Z,19.50
2022-09-14T16:25:01.266Z,19.50
2022-09-14T16:27:30.307Z,19.50
2022-09-14T16:29:58.205Z,19.50
2022-09-14T16:32:26.266Z,19.40
2022-09-14T16:34:55.826Z,19.40
2022-09-14T16:37:23.703Z,19.40
2022-09-14T16:39:51.868Z,19.30
2022-09-14T16:42:20.156Z,19.30
2022-09-14T16:44:48.097Z,19.20
2022-09-14T16:47:16.023Z,19.10
2022-09-14T16:49:44.200Z,19.10
2022-09-14T16:52:13.437Z,19.00
2022-09-14T16:54:41.504Z,19.00
2022-09-14T16:57:09.774Z,19.00
2022-09-14T16:59:37.676Z,19.00
2022-09-14T17:02:24.194Z,19.00
2022-09-14T17:05:25.680Z,19.00
2022-09-14T17:08:08.897Z,18.90
2022-09-14T17:10:45.626Z,18.90
2022-09-14T17:13:17.861Z,18.80
2022-09-14T17:15:46.254Z,18.80
2022-09-14T17:18:14.411Z,18.70
2022-09-14T17:20:42.303Z,18.70
2022-09-14T17:23:11.771Z,18.60
2022-09-14T17:25:40.189Z,18.50
2022-09-14T17:28:08.094Z,18.50
2022-09-14T17:30:36.012Z,18.50
2022-09-14T17:33:04.011Z,18.50
2022-09-14T17:35:31.956Z,18.50
2022-09-14T17:37:59.909Z,18.40
2022-09-14T17:40:31.230Z,18.40
2022-09-14T17:42:59.480Z,18.40
2022-09-14T17:45:27.719Z,18.30
2022-09-14T17:47:55.660Z,18.10
2022-09-14T17:50:23.686Z,18.10
2022-09-14T17:52:52.087Z,17.90
2022-09-14T17:55:20.589Z,17.90
2022-09-14T17:57:50.141Z,17.80
2022-09-14T18:00:18.888Z,17.80
2022-09-14T18:02:51.868Z,17.80
2022-09-14T18:05:20.125Z,17.80
2022-09-14T18:07:48.189Z,17.70
2022-09-14T18:10:18.879Z,17.70
2022-09-14T18:12:49.996Z,17.60
2022-09-14T18:15:19.260Z,17.60
2022-09-14T18:17:47.931Z,17.60
2022-09-14T18:20:15.913Z,17.60
2022-09-14T18:22:44.085Z,17.60
2022-09-14T18:25:12.423Z,17.50
2022-09-14T18:27:40.669Z,17.50
2022-09-14T18:30:13.179Z,17.40
2022-09-14T18:32:41.094Z,17.40
2022-09-14T18:35:10.299Z,17.50
2022-09-14T18:37:38.244Z,17.40
2022-09-14T18:40:06.825Z,17.40
2022-09-14T18:42:34.759Z,17.40
2022-09-14T18:45:02.645Z,17.40
2022-09-14T18:47:39.770Z,17.40
2022-09-14T18:50:08.272Z,17.30
2022-09-14T18:52:36.499Z,17.30
2022-09-14T18:55:04.880Z,17.30
2022-09-14T18:57:33.035Z,17.20
2022-09-14T19:00:01.085Z,17.30
2022-09-14T19:02:29.118Z,17.30
2022-09-14T19:04:59.315Z,17.30
2022-09-14T19:07:27.503Z,17.20
2022-09-14T19:09:56.933Z,17.30
2022-09-14T19:12:28.059Z,17.20
2022-09-14T19:14:56.106Z,17.20
2022-09-14T19:17:24.255Z,17.20
2022-09-14T19:19:54.935Z,17.20
2022-09-14T19:22:24.578Z,17.20
2022-09-14T19:24:52.746Z,17.10
2022-09-14T19:27:21.077Z,17.10
2022-09-14T19:29:49.378Z,17.10
2022-09-14T19:32:18.837Z,17.10
2022-09-14T19:34:47.308Z,17.00
2022-09-14T19:37:15.980Z,17.00
2022-09-14T19:39:45.734Z,17.00
2022-09-14T19:42:13.921Z,17.00
2022-09-14T19:44:41.984Z,17.00
2022-09-14T19:47:09.940Z,17.00
2022-09-14T19:49:37.932Z,17.10
2022-09-14T19:52:06.383Z,17.10
2022-09-14T19:54:35.054Z,17.10
2022-09-14T19:57:04.929Z,17.10
2022-09-14T19:59:32.908Z,17.20
2022-09-14T20:02:01.333Z,17.10
2022-09-14T20:04:29.377Z,17.10
2022-09-14T20:06:57.455Z,17.20
2022-09-14T20:09:25.818Z,17.20
2022-09-14T20:11:54.464Z,17.20
2022-09-14T20:14:25.975Z,17.20
2022-09-14T20:16:56.059Z,17.20
2022-09-14T20:19:26.517Z,17.10
2022-09-14T20:21:55.572Z,17.20
2022-09-14T20:24:25.730Z,17.20
2022-09-14T20:26:55.588Z,17.20
2022-09-14T20:29:28.406Z,17.20
2022-09-14T20:31:56.411Z,17.20
2022-09-14T20:34:24.948Z,17.20
2022-09-14T20:37:03.788Z,17.10
2022-09-14T20:39:35.845Z,17.20
2022-09-14T20:42:04.043Z,17.20
2022-09-14T20:44:33.778Z,17.20
2022-09-14T20:47:01.915Z,17.10
2022-09-14T20:49:30.158Z,17.10
2022-09-14T20:52:00.582Z,17.10
2022-09-14T20:54:28.478Z,17.10
2022-09-14T20:56:59.941Z,17.10
2022-09-14T20:59:30.456Z,17.10
2022-09-14T21:02:04.662Z,17.10
2022-09-14T21:04:35.774Z,17.10
2022-09-14T21:07:03.673Z,17.10
2022-09-14T21:09:32.082Z,17.20
2022-09-14T21:12:00.120Z,17.10
2022-09-14T21:14:28.552Z,17.10
2022-09-14T21:16:57.445Z,17.10
2022-09-14T21:19:28.662Z,17.10
2022-09-14T21:21:57.851Z,17.10
2022-09-14T21:24:26.530Z,17.10
2022-09-14T21:26:54.544Z,17.20
2022-09-14T21:29:23.898Z,17.20
2022-09-14T21:31:53.028Z,17.20
2022-09-14T21:34:21.037Z,17.10
2022-09-14T21:36:52.030Z,17.20
2022-09-14T21:39:23.385Z,17.10
2022-09-14T21:41:57.292Z,17.10
2022-09-14T21:44:29.937Z,17.10
2022-09-14T21:46:57.875Z,17.10
2022-09-14T21:49:25.744Z,17.10
2022-09-14T21:51:55.532Z,17.10
2022-09-14T21:54:23.513Z,17.10
2022-09-14T21:56:51.383Z,17.10
2022-09-14T21:59:22.213Z,17.10
2022-09-14T22:01:50.406Z,17.10
2022-09-14T22:04:21.513Z,17.10
2022-09-14T22:06:51.349Z,17.00
2022-09-14T22:09:22.955Z,17.10
2022-09-14T22:11:50.896Z,17.00
2022-09-14T22:14:20.508Z,17.00
2022-09-14T22:16:49.669Z,17.00
2022-09-14T22:19:21.016Z,17.10
2022-09-14T22:21:49.500Z,17.00
2022-09-14T22:24:21.069Z,17.10
2022-09-14T22:26:50.266Z,17.00
2022-09-14T22:29:18.783Z,17.00
2022-09-14T22:31:47.554Z,17.00
2022-09-14T22:34:16.346Z,17.00
2022-09-14T22:36:44.992Z,17.00
2022-09-14T22:39:12.891Z,17.10
2022-09-14T22:41:42.210Z,17.10
2022-09-14T22:44:12.661Z,17.10
2022-09-14T22:46:41.144Z,17.10
2022-09-14T22:49:09.049Z,17.10
2022-09-14T22:51:36.962Z,17.10
2022-09-14T22:54:05.428Z,17.10
2022-09-14T22:56:35.427Z,17.00
2022-09-14T22:59:07.058Z,17.10
2022-09-14T23:01:39.215Z,17.10
2022-09-14T23:04:09.581Z,17.00
2022-09-14T23:06:39.904Z,17.00
2022-09-14T23:09:09.598Z,17.10
2022-09-14T23:11:37.889Z,17.00
2022-09-14T23:14:07.411Z,17.10
2022-09-14T23:16:35.359Z,17.00
2022-09-14T23:19:06.619Z,17.00
2022-09-14T23:21:35.441Z,17.10
2022-09-14T23:24:05.600Z,17.10
2022-09-14T23:26:34.319Z,17.10
2022-09-14T23:29:09.252Z,17.10
2022-09-14T23:31:37.108Z,17.10
2022-09-14T23:34:06.606Z,17.20
2022-09-14T23:36:35.270Z,17.10
2022-09-14T23:39:03.215Z,17.10
2022-09-14T23:41:31.450Z,17.20
2022-09-14T23:43:59.319Z,17.10
2022-09-14T23:46:28.699Z,17.20
2022-09-14T23:48:56.707Z,17.20
2022-09-14T23:51:24.864Z,17.20
2022-09-14T23:53:52.773Z,17.20
2022-09-14T23:56:20.871Z,17.20
2022-09-14T23:58:48.877Z,17.20
